createdAt,value
2023-03-26T00:00:45.932Z,1
2023-03-26T00:01:54.556Z,1.2
2023-03-26T00:03:03.028Z,1.2
2023-03-26T00:04:11.222Z,1.2
2023-03-26T00:05:19.841Z,1.1
2023-03-26T00:06:28.160Z,1.1
2023-03-26T00:07:36.541Z,1.1
2023-03-26T00:08:45.237Z,0.9
2023-03-26T00:09:53.486Z,0.9
2023-03-26T00:11:01.811Z,0.9
2023-03-26T00:12:10.362Z,1.1
2023-03-26T00:13:18.723Z,1.1
2023-03-26T00:14:27.056Z,1.1
2023-03-26T00:15:35.641Z,1.4
2023-03-26T00:16:44.012Z,1.4
2023-03-26T00:17:52.364Z,1.4
2023-03-26T00:19:00.881Z,0.9
2023-03-26T00:20:09.260Z,0.9
2023-03-26T00:21:17.597Z,0.9
2023-03-26T00:22:26.192Z,1
2023-03-26T00:23:34.533Z,1
2023-03-26T00:24:42.920Z,1
2023-03-26T00:25:51.582Z,0.8
2023-03-26T00:26:59.945Z,0.8
2023-03-26T00:28:08.220Z,0.8
2023-03-26T00:29:16.780Z,1.3
2023-03-26T00:30:25.136Z,1.3
2023-03-26T00:31:33.471Z,1.3
2023-03-26T00:32:42.042Z,0.8
2023-03-26T00:33:50.382Z,0.8
2023-03-26T00:34:58.728Z,0.8
2023-03-26T00:36:07.313Z,0.9
2023-03-26T00:37:15.634Z,0.9
2023-03-26T00:38:24.010Z,0.9
2023-03-26T00:39:32.526Z,0.9
2023-03-26T00:40:40.879Z,0.9
2023-03-26T00:41:49.252Z,0.9
2023-03-26T00:42:57.771Z,0.7
2023-03-26T00:44:06.129Z,0.7
2023-03-26T00:45:14.469Z,0.7
2023-03-26T00:46:23.050Z,0.6
2023-03-26T00:47:31.357Z,0.6
2023-03-26T00:48:44.868Z,0.6
2023-03-26T00:49:48.260Z,0.7
2023-03-26T00:50:56.613Z,0.7
2023-03-26T00:52:04.952Z,0.7
2023-03-26T00:53:13.497Z,0.8
2023-03-26T00:54:21.854Z,0.8
2023-03-26T00:55:30.217Z,0.8
2023-03-26T00:56:38.924Z,1.1
2023-03-26T00:57:47.127Z,1.1
2023-03-26T00:58:55.494Z,1.1
2023-03-26T01:00:04.109Z,1.1
2023-03-26T01:01:12.452Z,1.1
2023-03-26T01:02:20.798Z,1.1
2023-03-26T01:03:29.390Z,1.2
2023-03-26T01:04:37.824Z,1.2
2023-03-26T01:05:46.037Z,1.2
2023-03-26T01:06:54.580Z,1.1
2023-03-26T01:08:02.966Z,1.1
2023-03-26T01:09:11.310Z,1.1
2023-03-26T01:10:19.902Z,1.3
2023-03-26T01:11:28.289Z,1.3
2023-03-26T01:12:36.640Z,1.3
2023-03-26T01:13:45.263Z,1
2023-03-26T01:14:53.579Z,1
2023-03-26T01:16:02.019Z,1
2023-03-26T01:17:10.490Z,1.2
2023-03-26T01:18:18.833Z,1.2
2023-03-26T01:19:27.175Z,1.2
2023-03-26T01:20:35.742Z,1.7
2023-03-26T01:21:44.099Z,1.7
2023-03-26T01:22:52.448Z,1.7
2023-03-26T01:24:01.037Z,1.3
2023-03-26T01:25:09.365Z,1.3
2023-03-26T01:26:17.712Z,1.3
2023-03-26T01:27:26.263Z,1.8
2023-03-26T01:28:34.609Z,1.8
2023-03-26T01:29:42.999Z,1.8
2023-03-26T01:30:51.548Z,1.7
2023-03-26T01:31:59.915Z,1.7
2023-03-26T01:33:08.317Z,1.7
2023-03-26T01:34:16.854Z,1.4
2023-03-26T01:35:25.293Z,1.4
2023-03-26T01:36:33.578Z,1.4
2023-03-26T01:37:42.129Z,1.6
2023-03-26T01:38:50.537Z,1.6
2023-03-26T01:39:58.860Z,1.6
2023-03-26T01:41:07.432Z,1.4
2023-03-26T01:42:15.772Z,1.4
2023-03-26T01:43:24.119Z,1.4
2023-03-26T01:44:32.678Z,1.6
2023-03-26T01:45:41.045Z,1.6
2023-03-26T01:46:49.365Z,1.6
2023-03-26T01:47:58.003Z,1.7
2023-03-26T01:49:06.256Z,1.7
2023-03-26T01:50:14.617Z,1.7
2023-03-26T01:51:23.167Z,1.6
2023-03-26T01:52:31.509Z,1.6
2023-03-26T01:53:39.838Z,1.6
2023-03-26T01:54:48.418Z,1.4
2023-03-26T01:55:56.846Z,1.4
2023-03-26T01:57:05.122Z,1.4
2023-03-26T01:58:13.661Z,1.8
2023-03-26T01:59:22.002Z,1.8
2023-03-26T02:00:30.380Z,1.8
2023-03-26T02:01:38.999Z,1.7
2023-03-26T02:02:47.465Z,1.7
2023-03-26T02:03:55.654Z,1.7
2023-03-26T02:05:04.295Z,2
2023-03-26T02:06:12.630Z,2
2023-03-26T02:07:20.981Z,2
2023-03-26T02:08:29.536Z,2
2023-03-26T02:09:37.880Z,2
2023-03-26T02:10:46.246Z,2
2023-03-26T02:11:54.815Z,1.6
2023-03-26T02:13:03.170Z,1.6
2023-03-26T02:14:11.541Z,1.6
2023-03-26T02:15:20.134Z,1.9
2023-03-26T02:16:28.500Z,1.9
2023-03-26T02:17:36.811Z,1.9
2023-03-26T02:18:45.341Z,1.8
2023-03-26T02:19:53.703Z,1.8
2023-03-26T02:21:02.057Z,1.8
2023-03-26T02:22:10.630Z,1.8
2023-03-26T02:23:18.948Z,1.8
2023-03-26T02:24:27.292Z,1.8
2023-03-26T02:25:35.868Z,1.8
2023-03-26T02:26:44.224Z,1.8
2023-03-26T02:27:52.634Z,1.8
2023-03-26T02:29:01.160Z,1.9
2023-03-26T02:30:09.500Z,1.9
2023-03-26T02:31:17.876Z,1.9
2023-03-26T02:32:28.729Z,1.9
2023-03-26T02:33:34.768Z,1.9
2023-03-26T02:34:43.108Z,1.9
2023-03-26T02:35:51.788Z,1.7
2023-03-26T02:36:59.952Z,1.7
2023-03-26T02:38:08.307Z,1.7
2023-03-26T02:39:16.843Z,1.9
2023-03-26T02:40:25.202Z,1.9
2023-03-26T02:41:33.547Z,1.9
2023-03-26T02:42:42.093Z,1.7
2023-03-26T02:43:50.464Z,1.7
2023-03-26T02:44:58.867Z,1.7
2023-03-26T02:46:07.452Z,1.6
2023-03-26T02:47:15.748Z,1.6
2023-03-26T02:48:24.087Z,1.6
2023-03-26T02:49:32.700Z,1.6
2023-03-26T02:50:41.000Z,1.6
2023-03-26T02:51:49.331Z,1.6
2023-03-26T02:52:57.941Z,1.5
2023-03-26T02:54:06.263Z,1.5
2023-03-26T02:55:14.620Z,1.5
2023-03-26T02:56:23.181Z,1.4
2023-03-26T02:57:31.534Z,1.4
2023-03-26T02:58:39.873Z,1.4
2023-03-26T02:59:48.418Z,1.8
2023-03-26T03:00:56.777Z,1.8
2023-03-26T03:02:05.140Z,1.8
2023-03-26T03:03:13.672Z,1.8
2023-03-26T03:04:22.006Z,1.8
2023-03-26T03:05:30.382Z,1.8
2023-03-26T03:06:38.907Z,1.4
2023-03-26T03:07:47.296Z,1.4
2023-03-26T03:08:55.609Z,1.4
2023-03-26T03:10:04.158Z,2.1
2023-03-26T03:11:12.491Z,2.1
2023-03-26T03:12:20.839Z,2.1
2023-03-26T03:13:29.402Z,1.6
2023-03-26T03:14:37.711Z,1.6
2023-03-26T03:15:46.081Z,1.6
2023-03-26T03:16:54.666Z,1.5
2023-03-26T03:18:03.043Z,1.5
2023-03-26T03:19:11.423Z,1.5
2023-03-26T03:20:19.970Z,1.7
2023-03-26T03:21:28.333Z,1.7
2023-03-26T03:22:36.660Z,1.7
2023-03-26T03:23:45.222Z,2
2023-03-26T03:24:53.578Z,2
2023-03-26T03:26:01.906Z,2
2023-03-26T03:27:10.458Z,1.3
2023-03-26T03:28:18.789Z,1.3
2023-03-26T03:29:27.130Z,1.3
2023-03-26T03:30:35.809Z,1.6
2023-03-26T03:31:44.056Z,1.6
2023-03-26T03:32:52.446Z,1.6
2023-03-26T03:34:01.747Z,1.6
2023-03-26T03:35:10.147Z,1.6
2023-03-26T03:36:20.001Z,1.6
2023-03-26T03:37:27.078Z,1.6
2023-03-26T03:38:35.403Z,1.6
2023-03-26T03:39:43.769Z,1.6
2023-03-26T03:40:52.319Z,1.3
2023-03-26T03:42:00.669Z,1.3
2023-03-26T03:43:09.071Z,1.3
2023-03-26T03:44:17.635Z,1.6
2023-03-26T03:45:26.017Z,1.6
2023-03-26T03:46:34.384Z,1.6
2023-03-26T03:47:42.968Z,1.5
2023-03-26T03:48:51.276Z,1.5
2023-03-26T03:49:59.621Z,1.5
2023-03-26T03:51:08.209Z,1.7
2023-03-26T03:52:16.558Z,1.7
2023-03-26T03:53:24.925Z,1.7
2023-03-26T03:54:33.494Z,1.6
2023-03-26T03:55:41.848Z,1.6
2023-03-26T03:56:50.178Z,1.6
2023-03-26T03:57:58.747Z,1.6
2023-03-26T03:59:07.074Z,1.6
2023-03-26T04:00:15.420Z,1.6
2023-03-26T04:01:23.992Z,1.8
2023-03-26T04:02:32.392Z,1.8
2023-03-26T04:03:40.810Z,1.8
2023-03-26T04:04:49.288Z,1.5
2023-03-26T04:05:57.641Z,1.5
2023-03-26T04:07:05.984Z,1.5
2023-03-26T04:08:14.534Z,1.7
2023-03-26T04:09:22.904Z,1.7
2023-03-26T04:10:31.267Z,1.7
2023-03-26T04:11:39.839Z,1.7
2023-03-26T04:12:48.193Z,1.7
2023-03-26T04:13:56.534Z,1.7
2023-03-26T04:15:05.109Z,1.7
2023-03-26T04:16:13.520Z,1.7
2023-03-26T04:17:21.826Z,1.7
2023-03-26T04:18:30.414Z,1.7
2023-03-26T04:19:38.749Z,1.7
2023-03-26T04:20:47.156Z,1.7
2023-03-26T04:21:55.713Z,2.1
2023-03-26T04:23:04.063Z,2.1
2023-03-26T04:24:12.400Z,2.1
2023-03-26T04:25:20.986Z,1.5
2023-03-26T04:26:29.317Z,1.5
2023-03-26T04:27:37.667Z,1.5
2023-03-26T04:28:46.190Z,1.8
2023-03-26T04:29:54.591Z,1.8
2023-03-26T04:31:02.945Z,1.8
2023-03-26T04:32:11.492Z,1.8
2023-03-26T04:33:19.831Z,1.8
2023-03-26T04:34:28.236Z,1.8
2023-03-26T04:35:36.838Z,1.8
2023-03-26T04:36:45.139Z,1.8
2023-03-26T04:37:53.515Z,1.8
2023-03-26T04:39:02.042Z,2.1
2023-03-26T04:40:10.446Z,2.1
2023-03-26T04:41:18.791Z,2.1
2023-03-26T04:42:27.314Z,2
2023-03-26T04:43:35.700Z,2
2023-03-26T04:44:44.042Z,2
2023-03-26T04:45:52.630Z,1.9
2023-03-26T04:47:00.942Z,1.9
2023-03-26T04:48:09.309Z,1.9
2023-03-26T04:49:17.872Z,2
2023-03-26T04:50:26.264Z,2
2023-03-26T04:51:34.609Z,2
2023-03-26T04:52:45.062Z,1.9
2023-03-26T04:53:51.485Z,1.9
2023-03-26T04:54:59.859Z,1.9
2023-03-26T04:56:08.456Z,1.8
2023-03-26T04:57:16.814Z,1.8
2023-03-26T04:58:25.115Z,1.8
2023-03-26T04:59:33.688Z,1.9
2023-03-26T05:00:42.065Z,1.9
2023-03-26T05:01:50.390Z,1.9
2023-03-26T05:02:58.968Z,2
2023-03-26T05:04:07.316Z,2
2023-03-26T05:05:18.412Z,2
2023-03-26T05:06:26.995Z,1.9
2023-03-26T05:07:35.337Z,1.9
2023-03-26T05:08:43.689Z,1.9
2023-03-26T05:09:52.236Z,1.9
2023-03-26T05:11:00.589Z,1.9
2023-03-26T05:12:08.949Z,1.9
2023-03-26T05:13:17.525Z,1.8
2023-03-26T05:14:25.845Z,1.8
2023-03-26T05:15:34.214Z,1.8
2023-03-26T05:16:42.784Z,2.1
2023-03-26T05:17:51.144Z,2.1
2023-03-26T05:18:59.451Z,2.1
2023-03-26T05:20:08.010Z,2.2
2023-03-26T05:21:16.411Z,2.2
2023-03-26T05:22:24.752Z,2.2
2023-03-26T05:23:33.297Z,2.2
2023-03-26T05:24:41.675Z,2.2
2023-03-26T05:25:50.037Z,2.2
2023-03-26T05:26:58.584Z,2.3
2023-03-26T05:28:06.983Z,2.3
2023-03-26T05:29:15.359Z,2.3
2023-03-26T05:30:23.890Z,2.6
2023-03-26T05:31:32.231Z,2.6
2023-03-26T05:32:40.608Z,2.6
2023-03-26T05:33:49.150Z,2.1
2023-03-26T05:34:57.478Z,2.1
2023-03-26T05:36:05.807Z,2.1
2023-03-26T05:37:14.342Z,2.4
2023-03-26T05:38:22.716Z,2.4
2023-03-26T05:39:31.076Z,2.4
2023-03-26T05:40:39.663Z,2.4
2023-03-26T05:41:47.977Z,2.4
2023-03-26T05:42:56.314Z,2.4
2023-03-26T05:44:04.872Z,1.7
2023-03-26T05:45:13.262Z,1.7
2023-03-26T05:46:21.628Z,1.7
2023-03-26T05:47:30.136Z,4.5
2023-03-26T05:48:38.508Z,4.5
2023-03-26T05:49:46.833Z,4.5
2023-03-26T05:50:55.549Z,2.4
2023-03-26T05:52:03.714Z,2.4
2023-03-26T05:53:12.073Z,2.4
2023-03-26T05:54:20.618Z,2.4
2023-03-26T05:55:28.968Z,2.4
2023-03-26T05:56:37.337Z,2.4
2023-03-26T05:57:45.849Z,2.3
2023-03-26T05:58:54.205Z,2.3
2023-03-26T06:00:02.552Z,2.3
2023-03-26T06:01:11.114Z,2.7
2023-03-26T06:02:19.432Z,2.7
2023-03-26T06:03:27.924Z,2.7
2023-03-26T06:04:36.420Z,2.7
2023-03-26T06:05:44.724Z,2.7
2023-03-26T06:06:53.089Z,2.7
2023-03-26T06:08:01.680Z,2.5
2023-03-26T06:09:10.011Z,2.5
2023-03-26T06:10:18.777Z,2.5
2023-03-26T06:11:27.021Z,2.4
2023-03-26T06:12:35.397Z,2.4
2023-03-26T06:13:43.761Z,2.4
2023-03-26T06:14:52.336Z,2.5
2023-03-26T06:16:00.757Z,2.5
2023-03-26T06:17:09.118Z,2.5
2023-03-26T06:18:17.643Z,2.4
2023-03-26T06:19:26.012Z,2.4
2023-03-26T06:20:34.372Z,2.4
2023-03-26T06:21:42.937Z,2.4
2023-03-26T06:22:51.483Z,2.4
2023-03-26T06:23:59.853Z,2.4
2023-03-26T06:25:08.427Z,2.1
2023-03-26T06:26:16.764Z,2.1
2023-03-26T06:27:25.128Z,2.1
2023-03-26T06:28:33.709Z,2.3
2023-03-26T06:29:42.087Z,2.3
2023-03-26T06:30:50.486Z,2.3
2023-03-26T06:32:06.376Z,2.2
2023-03-26T06:33:07.432Z,2.2
2023-03-26T06:34:15.779Z,2.2
2023-03-26T06:35:24.414Z,2
2023-03-26T06:36:32.812Z,2
2023-03-26T06:37:41.163Z,2
2023-03-26T06:38:49.737Z,2
2023-03-26T06:39:58.117Z,2
2023-03-26T06:41:06.515Z,2
2023-03-26T06:42:15.087Z,2.3
2023-03-26T06:43:23.485Z,2.3
2023-03-26T06:44:31.839Z,2.3
2023-03-26T06:45:40.389Z,6.9
2023-03-26T06:46:48.782Z,6.9
2023-03-26T06:47:57.105Z,6.9
2023-03-26T06:49:05.826Z,2.7
2023-03-26T06:50:14.104Z,2.7
2023-03-26T06:51:22.440Z,2.7
2023-03-26T06:52:30.961Z,3.3
2023-03-26T06:53:39.667Z,3.3
2023-03-26T06:54:48.028Z,3.3
2023-03-26T06:55:56.536Z,2.4
2023-03-26T06:57:04.917Z,2.4
2023-03-26T06:58:13.209Z,2.4
2023-03-26T06:59:21.739Z,1.6
2023-03-26T07:00:30.090Z,1.6
2023-03-26T07:01:38.469Z,1.6
2023-03-26T07:02:47.014Z,2.5
2023-03-26T07:03:55.329Z,2.5
2023-03-26T07:05:03.679Z,2.5
2023-03-26T07:06:12.204Z,2.2
2023-03-26T07:07:20.554Z,2.2
2023-03-26T07:08:28.931Z,2.2
2023-03-26T07:09:37.476Z,3.6
2023-03-26T07:10:45.939Z,3.6
2023-03-26T07:11:54.268Z,3.6
2023-03-26T07:13:02.845Z,2.1
2023-03-26T07:14:11.187Z,2.1
2023-03-26T07:15:19.546Z,2.1
2023-03-26T07:16:28.118Z,2.3
2023-03-26T07:17:36.433Z,2.3
2023-03-26T07:18:44.768Z,2.3
2023-03-26T07:19:53.328Z,1.8
2023-03-26T07:21:01.710Z,1.8
2023-03-26T07:22:10.018Z,1.8
2023-03-26T07:23:18.579Z,2.2
2023-03-26T07:24:26.969Z,2.2
2023-03-26T07:25:35.601Z,2.2
2023-03-26T07:26:43.865Z,2.1
2023-03-26T07:27:52.226Z,2.1
2023-03-26T07:29:03.870Z,2.1
2023-03-26T07:30:09.131Z,2.2
2023-03-26T07:31:17.526Z,2.2
2023-03-26T07:32:25.870Z,2.2
2023-03-26T07:33:34.424Z,2.3
2023-03-26T07:34:42.774Z,2.3
2023-03-26T07:35:51.139Z,2.3
2023-03-26T07:36:59.711Z,4.4
2023-03-26T07:38:08.038Z,4.4
2023-03-26T07:39:16.377Z,4.4
2023-03-26T07:40:24.929Z,3.1
2023-03-26T07:41:33.278Z,3.1
2023-03-26T07:42:41.637Z,3.1
2023-03-26T07:43:50.197Z,5.7
2023-03-26T07:44:58.596Z,5.7
2023-03-26T07:46:06.941Z,5.7
2023-03-26T07:47:15.702Z,3.1
2023-03-26T07:48:23.851Z,3.1
2023-03-26T07:49:32.198Z,3.1
2023-03-26T07:50:40.777Z,1.8
2023-03-26T07:51:49.127Z,1.8
2023-03-26T07:52:57.534Z,1.8
2023-03-26T07:54:06.074Z,2.1
2023-03-26T07:55:14.447Z,2.1
2023-03-26T07:56:22.822Z,2.1
2023-03-26T07:57:31.425Z,3.3
2023-03-26T07:58:39.772Z,3.3
2023-03-26T07:59:48.141Z,3.3
2023-03-26T08:00:56.879Z,3.4
2023-03-26T08:02:05.082Z,3.4
2023-03-26T08:03:13.559Z,3.4
2023-03-26T08:04:23.040Z,3.9
2023-03-26T08:05:30.362Z,3.9
2023-03-26T08:06:38.727Z,3.9
2023-03-26T08:07:47.280Z,2.8
2023-03-26T08:08:55.674Z,2.8
2023-03-26T08:10:04.042Z,2.8
2023-03-26T08:11:12.742Z,1.9
2023-03-26T08:12:20.950Z,1.9
2023-03-26T08:13:29.318Z,1.9
2023-03-26T08:14:37.895Z,2.2
2023-03-26T08:15:46.312Z,2.2
2023-03-26T08:16:54.666Z,2.2
2023-03-26T08:18:03.287Z,2.7
2023-03-26T08:19:11.592Z,2.7
2023-03-26T08:20:20.003Z,2.7
2023-03-26T08:21:28.585Z,2.1
2023-03-26T08:22:36.964Z,2.1
2023-03-26T08:23:50.591Z,2.1
2023-03-26T08:24:53.908Z,2.7
2023-03-26T08:26:02.300Z,2.7
2023-03-26T08:27:10.632Z,2.7
2023-03-26T08:28:19.215Z,2.2
2023-03-26T08:29:27.599Z,2.2
2023-03-26T08:30:35.984Z,2.2
2023-03-26T08:31:44.561Z,2.2
2023-03-26T08:32:52.968Z,2.2
2023-03-26T08:34:01.292Z,2.2
2023-03-26T08:35:09.861Z,2.5
2023-03-26T08:36:18.219Z,2.5
2023-03-26T08:37:26.620Z,2.5
2023-03-26T08:38:35.182Z,4.2
2023-03-26T08:39:43.566Z,4.2
2023-03-26T08:40:51.969Z,4.2
2023-03-26T08:42:00.524Z,2.8
2023-03-26T08:43:08.895Z,2.8
2023-03-26T08:44:17.256Z,2.8
2023-03-26T08:45:25.836Z,2.3
2023-03-26T08:46:34.242Z,2.3
2023-03-26T08:47:42.627Z,2.3
2023-03-26T08:48:51.169Z,2.2
2023-03-26T08:49:59.534Z,2.2
2023-03-26T08:51:07.900Z,2.2
2023-03-26T08:52:16.497Z,2.1
2023-03-26T08:53:24.878Z,2.1
2023-03-26T08:54:33.237Z,2.1
2023-03-26T08:55:41.826Z,2.9
2023-03-26T08:56:50.249Z,2.9
2023-03-26T08:57:58.563Z,2.9
2023-03-26T08:59:07.159Z,2.3
2023-03-26T09:00:15.640Z,2.3
2023-03-26T09:01:23.960Z,2.3
2023-03-26T09:02:32.513Z,2.5
2023-03-26T09:03:40.904Z,2.5
2023-03-26T09:04:49.266Z,2.5
2023-03-26T09:05:57.852Z,2.6
2023-03-26T09:07:06.230Z,2.6
2023-03-26T09:08:14.594Z,2.6
2023-03-26T09:09:23.163Z,2.4
2023-03-26T09:10:31.551Z,2.4
2023-03-26T09:11:39.927Z,2.4
2023-03-26T09:12:48.536Z,5.6
2023-03-26T09:13:56.884Z,5.6
2023-03-26T09:15:05.295Z,5.6
2023-03-26T09:16:13.894Z,5.3
2023-03-26T09:17:22.262Z,5.3
2023-03-26T09:18:30.662Z,5.3
2023-03-26T09:19:39.232Z,3.7
2023-03-26T09:20:47.618Z,3.7
2023-03-26T09:21:56.008Z,3.7
2023-03-26T09:23:04.618Z,2.2
2023-03-26T09:24:13.011Z,2.2
2023-03-26T09:25:21.396Z,2.2
2023-03-26T09:26:29.997Z,2.6
2023-03-26T09:27:38.376Z,2.6
2023-03-26T09:28:46.788Z,2.6
2023-03-26T09:29:55.356Z,2.5
2023-03-26T09:31:03.737Z,2.5
2023-03-26T09:32:12.114Z,2.5
2023-03-26T09:33:20.698Z,2.7
2023-03-26T09:34:29.094Z,2.7
2023-03-26T09:35:37.501Z,2.7
2023-03-26T09:36:46.073Z,2.8
2023-03-26T09:37:56.522Z,2.8
2023-03-26T09:39:02.836Z,2.8
2023-03-26T09:40:11.454Z,2.4
2023-03-26T09:41:19.842Z,2.4
2023-03-26T09:42:28.201Z,2.4
2023-03-26T09:43:36.778Z,2.1
2023-03-26T09:44:45.240Z,2.1
2023-03-26T09:45:53.582Z,2.1
2023-03-26T09:47:02.166Z,5.9
2023-03-26T09:48:10.512Z,5.9
2023-03-26T09:49:18.888Z,5.9
2023-03-26T09:50:27.484Z,4.4
2023-03-26T09:51:35.854Z,4.4
2023-03-26T09:52:44.215Z,4.4
2023-03-26T09:53:52.795Z,5.1
2023-03-26T09:55:01.242Z,5.1
2023-03-26T09:56:09.572Z,5.1
2023-03-26T09:57:18.203Z,2.5
2023-03-26T09:58:26.512Z,2.5
2023-03-26T09:59:34.864Z,2.5
2023-03-26T10:00:43.539Z,8.3
2023-03-26T10:01:51.856Z,8.3
2023-03-26T10:03:00.255Z,8.3
2023-03-26T10:04:08.833Z,3.1
2023-03-26T10:05:17.206Z,3.1
2023-03-26T10:06:25.595Z,3.1
2023-03-26T10:07:34.158Z,5.6
2023-03-26T10:08:42.540Z,5.6
2023-03-26T10:09:50.910Z,5.6
2023-03-26T10:10:59.481Z,3.2
2023-03-26T10:12:07.861Z,3.2
2023-03-26T10:13:16.251Z,3.2
2023-03-26T10:14:24.817Z,2.5
2023-03-26T10:15:33.215Z,2.5
2023-03-26T10:16:41.632Z,2.5
2023-03-26T10:17:50.248Z,5.8
2023-03-26T10:18:58.540Z,5.8
2023-03-26T10:20:06.928Z,5.8
2023-03-26T10:21:15.511Z,5.1
2023-03-26T10:22:23.878Z,5.1
2023-03-26T10:23:32.252Z,5.1
2023-03-26T10:24:40.815Z,4
2023-03-26T10:25:49.226Z,4
2023-03-26T10:27:09.622Z,4
2023-03-26T10:28:06.198Z,5
2023-03-26T10:29:14.574Z,5
2023-03-26T10:30:22.958Z,5
2023-03-26T10:31:31.532Z,10.6
2023-03-26T10:32:39.954Z,10.6
2023-03-26T10:33:48.295Z,10.6
2023-03-26T10:34:56.897Z,8.5
2023-03-26T10:36:05.297Z,8.5
2023-03-26T10:37:13.645Z,8.5
2023-03-26T10:38:22.244Z,3.1
2023-03-26T10:39:35.892Z,3.1
2023-03-26T10:40:39.011Z,3.1
2023-03-26T10:41:47.605Z,5
2023-03-26T10:42:55.988Z,5
2023-03-26T10:44:08.303Z,5
2023-03-26T10:45:12.957Z,4.8
2023-03-26T10:46:21.351Z,4.8
2023-03-26T10:47:29.766Z,4.8
2023-03-26T10:48:38.409Z,5.3
2023-03-26T10:49:46.735Z,5.3
2023-03-26T10:50:55.257Z,5.3
2023-03-26T10:52:03.678Z,3.6
2023-03-26T10:53:12.066Z,3.6
2023-03-26T10:54:20.454Z,3.6
2023-03-26T10:55:29.075Z,3.2
2023-03-26T10:56:37.439Z,3.2
2023-03-26T10:57:45.816Z,3.2
2023-03-26T10:58:54.400Z,4.3
2023-03-26T11:00:02.797Z,4.3
2023-03-26T11:01:11.173Z,4.3
2023-03-26T11:02:19.744Z,2.3
2023-03-26T11:03:28.117Z,2.3
2023-03-26T11:04:36.537Z,2.3
2023-03-26T11:05:45.131Z,4
2023-03-26T11:06:53.497Z,4
2023-03-26T11:08:01.873Z,4
2023-03-26T11:09:10.464Z,11.3
2023-03-26T11:10:18.859Z,11.3
2023-03-26T11:11:27.245Z,11.3
2023-03-26T11:12:35.872Z,4.2
2023-03-26T11:13:44.279Z,4.2
2023-03-26T11:14:52.659Z,4.2
2023-03-26T11:16:01.289Z,2.4
2023-03-26T11:17:09.638Z,2.4
2023-03-26T11:18:18.095Z,2.4
2023-03-26T11:19:26.600Z,2.6
2023-03-26T11:20:35.048Z,2.6
2023-03-26T11:21:43.407Z,2.6
2023-03-26T11:22:51.987Z,2.4
2023-03-26T11:24:04.421Z,2.4
2023-03-26T11:25:08.733Z,2.4
2023-03-26T11:26:17.322Z,3.9
2023-03-26T11:27:26.506Z,3.9
2023-03-26T11:28:34.091Z,3.9
2023-03-26T11:29:42.665Z,2.2
2023-03-26T11:30:51.048Z,2.2
2023-03-26T11:31:59.411Z,2.2
2023-03-26T11:33:08.028Z,1.7
2023-03-26T11:34:16.366Z,1.7
2023-03-26T11:35:40.031Z,1.7
2023-03-26T11:36:33.371Z,1.9
2023-03-26T11:37:41.724Z,1.9
2023-03-26T11:38:50.110Z,1.9
2023-03-26T11:39:58.717Z,1.5
2023-03-26T11:41:07.113Z,1.5
2023-03-26T11:42:15.490Z,1.5
2023-03-26T11:43:24.075Z,2
2023-03-26T11:44:32.458Z,2
2023-03-26T11:45:40.831Z,2
2023-03-26T11:46:49.440Z,1.4
2023-03-26T11:47:57.793Z,1.4
2023-03-26T11:49:06.142Z,1.4
2023-03-26T11:50:14.728Z,1.6
2023-03-26T11:51:23.103Z,1.6
2023-03-26T11:52:31.494Z,1.6
2023-03-26T11:53:40.052Z,1.2
2023-03-26T11:54:48.401Z,1.2
2023-03-26T11:55:56.755Z,1.2
2023-03-26T11:57:06.900Z,1.3
2023-03-26T11:58:13.707Z,1.3
2023-03-26T11:59:22.091Z,1.3
2023-03-26T12:00:30.697Z,0.7
2023-03-26T12:01:39.067Z,0.7
2023-03-26T12:02:47.500Z,0.7
2023-03-26T12:03:56.090Z,1
2023-03-26T12:05:04.473Z,1
2023-03-26T12:06:12.852Z,1
2023-03-26T12:07:21.480Z,0.9
2023-03-26T12:08:29.894Z,0.9
2023-03-26T12:09:38.222Z,0.9
2023-03-26T12:10:46.845Z,1.1
2023-03-26T12:11:55.232Z,1.1
2023-03-26T12:13:03.614Z,1.1
2023-03-26T12:14:12.195Z,1
2023-03-26T12:15:20.574Z,1
2023-03-26T12:16:28.991Z,1
2023-03-26T12:17:37.529Z,1.2
2023-03-26T12:18:45.928Z,1.2
2023-03-26T12:19:54.315Z,1.2
2023-03-26T12:21:02.912Z,1.4
2023-03-26T12:22:11.283Z,1.4
2023-03-26T12:23:19.656Z,1.4
2023-03-26T12:24:28.265Z,0.9
2023-03-26T12:25:36.604Z,0.9
2023-03-26T12:26:45.019Z,0.9
2023-03-26T12:27:53.536Z,1.5
2023-03-26T12:29:01.918Z,1.5
2023-03-26T12:30:10.312Z,1.5
2023-03-26T12:31:19.020Z,1.2
2023-03-26T12:32:35.598Z,1.2
2023-03-26T12:33:35.669Z,1.2
2023-03-26T12:34:44.185Z,0.8
2023-03-26T12:35:52.601Z,0.8
2023-03-26T12:37:00.947Z,0.8
2023-03-26T12:38:09.532Z,0.3
2023-03-26T12:40:06.438Z,0.3
2023-03-26T12:40:26.278Z,0.3
2023-03-26T12:42:26.317Z,0.7
2023-03-26T12:43:51.776Z,0.7
2023-03-26T12:44:42.462Z,0.7
2023-03-26T12:45:00.622Z,1
2023-03-26T12:47:15.192Z,1
2023-03-26T12:47:55.904Z,1
2023-03-26T12:48:25.449Z,1
2023-03-26T12:49:33.783Z,1
2023-03-26T12:50:42.162Z,1
2023-03-26T12:51:50.732Z,1
2023-03-26T12:52:59.103Z,1
2023-03-26T12:54:07.452Z,1
2023-03-26T12:55:16.040Z,0.3
2023-03-26T12:56:24.444Z,0.3
2023-03-26T12:57:32.792Z,0.3
2023-03-26T12:58:41.338Z,1.4
2023-03-26T12:59:49.713Z,1.4
2023-03-26T13:00:58.234Z,1.4
2023-03-26T13:02:06.670Z,0.7
2023-03-26T13:03:15.031Z,0.7
2023-03-26T13:04:23.410Z,0.7
2023-03-26T13:05:31.992Z,0.5
2023-03-26T13:06:48.426Z,0.5
2023-03-26T13:07:48.723Z,0.5
2023-03-26T13:08:57.303Z,0.7
2023-03-26T13:10:05.688Z,0.7
2023-03-26T13:11:14.027Z,0.7
2023-03-26T13:12:22.638Z,0.9
2023-03-26T13:13:30.975Z,0.9
2023-03-26T13:14:39.334Z,0.9
2023-03-26T13:15:47.922Z,1.3
2023-03-26T13:16:56.314Z,1.3
2023-03-26T13:18:04.657Z,1.3
2023-03-26T13:19:13.207Z,0.9
2023-03-26T13:20:21.589Z,0.9
2023-03-26T13:21:29.961Z,0.9
2023-03-26T13:22:38.537Z,0.9
2023-03-26T13:23:46.906Z,0.9
2023-03-26T13:24:55.264Z,0.9
2023-03-26T13:26:03.839Z,1.1
2023-03-26T13:27:12.182Z,1.1
2023-03-26T13:28:20.604Z,1.1
2023-03-26T13:29:29.122Z,0.4
2023-03-26T13:30:37.542Z,0.4
2023-03-26T13:31:45.885Z,0.4
2023-03-26T13:32:54.468Z,0.7
2023-03-26T13:34:02.826Z,0.7
2023-03-26T13:35:11.192Z,0.7
2023-03-26T13:36:23.632Z,0.4
2023-03-26T13:37:28.104Z,0.4
2023-03-26T13:38:36.462Z,0.4
2023-03-26T13:39:45.382Z,0.8
2023-03-26T13:40:53.869Z,0.8
2023-03-26T13:42:02.121Z,0.8
2023-03-26T13:43:10.696Z,0.5
2023-03-26T13:44:19.064Z,0.5
2023-03-26T13:45:27.404Z,0.5
2023-03-26T13:46:36.056Z,0.8
2023-03-26T13:47:44.368Z,0.8
2023-03-26T13:48:52.727Z,0.8
2023-03-26T13:50:01.301Z,1.9
2023-03-26T13:51:09.658Z,1.9
2023-03-26T13:52:18.027Z,1.9
2023-03-26T13:53:26.590Z,1.2
2023-03-26T13:54:34.955Z,1.2
2023-03-26T13:55:43.313Z,1.2
2023-03-26T13:56:51.865Z,2.2
2023-03-26T13:58:00.213Z,2.2
2023-03-26T13:59:08.668Z,2.2
2023-03-26T14:00:17.201Z,1.8
2023-03-26T14:01:25.571Z,1.8
2023-03-26T14:02:33.959Z,1.8
2023-03-26T14:03:42.508Z,2.9
2023-03-26T14:04:50.837Z,2.9
2023-03-26T14:05:59.194Z,2.9
2023-03-26T14:07:07.762Z,0.8
2023-03-26T14:08:16.110Z,0.8
2023-03-26T14:09:24.461Z,0.8
2023-03-26T14:10:33.018Z,0.5
2023-03-26T14:11:41.378Z,0.5
2023-03-26T14:12:49.725Z,0.5
2023-03-26T14:13:58.309Z,0.4
2023-03-26T14:15:06.687Z,0.4
2023-03-26T14:16:15.113Z,0.4
2023-03-26T14:17:23.602Z,0.6
2023-03-26T14:18:31.939Z,0.6
2023-03-26T14:19:40.299Z,0.6
2023-03-26T14:20:48.873Z,2.6
2023-03-26T14:21:57.228Z,2.6
2023-03-26T14:23:05.589Z,2.6
2023-03-26T14:24:14.146Z,1.7
2023-03-26T14:25:22.517Z,1.7
2023-03-26T14:26:30.871Z,1.7
2023-03-26T14:27:39.432Z,0.7
2023-03-26T14:28:47.803Z,0.7
2023-03-26T14:29:57.473Z,0.7
2023-03-26T14:31:04.748Z,1.2
2023-03-26T14:32:13.109Z,1.2
2023-03-26T14:33:27.128Z,1.2
2023-03-26T14:34:30.025Z,0.7
2023-03-26T14:35:38.485Z,0.7
2023-03-26T14:36:46.705Z,0.7
2023-03-26T14:37:55.255Z,1.5
2023-03-26T14:39:03.633Z,1.5
2023-03-26T14:40:12.007Z,1.5
2023-03-26T14:41:20.565Z,1.7
2023-03-26T14:42:28.916Z,1.7
2023-03-26T14:43:37.263Z,1.7
2023-03-26T14:44:47.423Z,1.7
2023-03-26T14:45:54.203Z,1.7
2023-03-26T14:47:02.642Z,1.7
2023-03-26T14:48:11.171Z,2.3
2023-03-26T14:49:19.455Z,2.3
2023-03-26T14:50:27.847Z,2.3
2023-03-26T14:51:36.404Z,0.7
2023-03-26T14:52:44.751Z,0.7
2023-03-26T14:53:53.115Z,0.7
2023-03-26T14:55:01.704Z,2.7
2023-03-26T14:56:10.044Z,2.7
2023-03-26T14:57:18.397Z,2.7
2023-03-26T14:58:26.958Z,3.5
2023-03-26T14:59:35.327Z,3.5
2023-03-26T15:00:43.689Z,3.5
2023-03-26T15:01:52.261Z,2.6
2023-03-26T15:03:00.602Z,2.6
2023-03-26T15:04:09.005Z,2.6
2023-03-26T15:05:17.540Z,1.9
2023-03-26T15:38:45.579Z,0
2023-03-26T15:39:58.760Z,0
2023-03-26T15:41:02.276Z,0
2023-03-26T15:42:10.821Z,1.6
2023-03-26T15:43:19.186Z,1.6
2023-03-26T15:44:27.563Z,1.6
2023-03-26T15:45:36.123Z,1
2023-03-26T15:46:44.482Z,1
2023-03-26T15:47:52.867Z,1
2023-03-26T15:49:01.483Z,1
2023-03-26T15:50:09.889Z,1
2023-03-26T15:51:18.297Z,1
2023-03-26T15:52:26.908Z,1.3
2023-03-26T15:53:35.305Z,1.3
2023-03-26T15:54:43.711Z,1.3
2023-03-26T15:55:52.321Z,1.6
2023-03-26T15:57:00.765Z,1.6
2023-03-26T15:58:10.179Z,1.6
2023-03-26T15:59:19.135Z,1.9
2023-03-26T16:00:27.539Z,1.9
2023-03-26T16:01:35.984Z,1.9
2023-03-26T16:02:44.616Z,2.2
2023-03-26T16:03:52.975Z,2.2
2023-03-26T16:05:01.562Z,2.2
2023-03-26T16:06:10.132Z,13.5
2023-03-26T16:07:18.492Z,13.5
2023-03-26T16:08:26.847Z,13.5
2023-03-26T16:09:35.416Z,15.9
2023-03-26T16:10:43.851Z,15.9
2023-03-26T16:11:52.173Z,15.9
2023-03-26T16:13:00.798Z,5.3
2023-03-26T16:14:09.205Z,5.3
2023-03-26T16:15:17.566Z,5.3
2023-03-26T16:16:26.142Z,4.7
2023-03-26T16:17:34.542Z,4.7
2023-03-26T16:18:42.936Z,4.7
2023-03-26T16:19:51.501Z,2.5